KFOT - Fortuna, California, USA
Updated: Tue, 20-Nov-2018 11:55am PST
Clear
Clear
 Wind from S
Wind: S 5 mph , 7 km/h
Temperature: 57°F , 14°C
Dew Point: 37°F , 3°C
Humidity: 48%
Barometer: 29.95 inHg , 1014.2 hPa
Clouds: Clear
Visibility: 8 miles , 13 km
2018/11/20 19:55 KFOT 201955Z AUTO 18004KT 8SM CLR 14/03 A2995 RMK AO1

Metar display script from Saratoga-Weather.org